Memorial Village's Hourly Summary for Monday, July 9, 2018
Hour Temp
(f)
RH
(%)
Solar Rad.
(MJ/m2)
Rainfall
(in)
Wind
(mph)
7/9/2018 12:00 AM 76 93 0 0 0.02
7/9/2018 1:00 AM 75 93 0 0 0
7/9/2018 2:00 AM 75 96 0 0 0
7/9/2018 3:00 AM 75 97 0 0 0
7/9/2018 4:00 AM 75 97 0 0 0
7/9/2018 5:00 AM 75 98 0 0 0
7/9/2018 6:00 AM 75 98 0.01 0 0
7/9/2018 7:00 AM 75 98 0.12 0 0
7/9/2018 8:00 AM 78 83 0.55 0 0.06
7/9/2018 9:00 AM 82 77 0.72 0 0.08
7/9/2018 10:00 AM 84 72 0.84 0 0.09
7/9/2018 11:00 AM 82 66 1 0.01 0.78
7/9/2018 12:00 PM 78 65 2.18 0 0.05
7/9/2018 1:00 PM 80 57 1.11 0 2.24
7/9/2018 2:00 PM 76 88 0.22 0.01 0.07
7/9/2018 3:00 PM 76 88 0.37 0 0.01
7/9/2018 4:00 PM 79 72 1.11 0 0.02
7/9/2018 5:00 PM 84 65 1.68 0 0.1
7/9/2018 6:00 PM 85 65 0.9 0 0.01
7/9/2018 7:00 PM 84 71 0.24 0 0
7/9/2018 8:00 PM 81 79 0.02 0 0
7/9/2018 9:00 PM 80 80 0 0 0.02
7/9/2018 10:00 PM 79 80 0 0 0
7/9/2018 11:00 PM 77 87 0 0 0
Data Summary 78 81 11.07 0.02 0.15